Aircraft
UPR1037 PT-BAC ATR-72 500
ZMBS
Bulgan Sum Airport
ZWWW
Ürümqi Diwopu International Airport
Pilot:: Klebson
Aircraft:: ATR 72-600
Alternate: ZMBS
Network: ivao
FLIGHT DETAILS
Distance: 219nm Duration 00h 15m
Cruise Speed: Flight Level: 10000
Validation: Pending Validation Type Charter
Flight Fuel
ZFW: 20947
Block Fuel/Initial FOB: 2548
Flight Fuel: 2249
Cargo
Passengers: 25
Cargo: 120
ROUTE
ROUTE: dct
REMARKS:
DATE
Date: 26-05-05
Departure Time: 1421
Cargo: 120
FLIGHT DETAILS
Crashed: No
Validator Comments:
Flight Rating: 100
LANDING ANALYSIS
Landing wind: 270º/1 kt
Landing heading: 250º
Landing VS:: -61 ft/min
Landing IAS:: 112 kt
Landing Force G: 1.1 G
Landing Bank: 0
Landing Pitch: 2
Landing Flaps: 100
Navigation Lights: ON
Landing Lights: ON
Beacon Lights: ON
Strobe Lights: ON
viserfly

ALTITUDE CHART

viserfly

MAIN EVENTS

DATE EVENT IAS ALTITUDE
2026-05-05 14:20:38 FLYacars version 1.3.5 0 3922
2026-05-05 14:20:38 Aircraft boarding in progress 0 3922
2026-05-05 14:20:38 FLAPS 50% 0 3922
2026-05-05 14:20:39 Navigation Lights ON 0 3922
2026-05-05 14:20:39 Beacon Lights ON 0 3922
2026-05-05 14:20:39 Strobe Lights ON 0 3922
2026-05-05 14:20:39 Landing Lights ON 0 3922
2026-05-05 14:20:39 Taxi Lights ON 0 3922
2026-05-05 14:20:39 Starting Engine 2 0 3922
2026-05-05 14:20:39 Starting Engine 1 0 3922
2026-05-05 14:20:50 Aircraft taxiing to runway 4 3922
2026-05-05 14:21:12 Detected Take-off roll, HDG 182, IAS 120kt, GS 130kt, G-force 1.2g, Pitch -3.2deg, Bank -0.3deg, Wind 270/01kt, Temp 15°C 120 3913
2026-05-05 14:21:12 Airborne 120 3913
2026-05-05 14:21:14 Gear UP, IAS 127kt, GS 137kt, ALT 42ft AGL 127 3950
2026-05-05 14:21:50 FLAPS 0% 149kt, ALT 5604ft 149 5604
2026-05-05 14:22:21 Aircraft on Top Of Climb at 9908ft, IAS 232kt, GS 271kt, HDG 245deg, TAT 2deg, WIND 271/2kt 232 9908
2026-05-05 14:32:37 Gear DOWN, IAS 257kt, GS 299kt, ALT 7556ft AGL 257 9982
2026-05-05 14:32:37 FLAPS 50% 257kt, ALT 9975ft 257 9975
2026-05-05 14:32:40 FLAPS 100% 252kt, ALT 9926ft 252 9926
2026-05-05 14:33:03 Aircraft on Top Of Descent at 9496ft, IAS 142kt, GS 162kt, HDG 245deg, TAT 1deg, WIND 269/2kt 142 9496
2026-05-05 14:34:37 FLAPS 50% 119kt, ALT 4215ft 119 4215
2026-05-05 14:35:00 FLAPS 100% 153kt, ALT 3946ft 153 3946
2026-05-05 14:36:49 Landed at destination with a landing rate of -61fpm, G-force 1.1g, Pitch 1.5deg, Bank 0.1deg, HDG 250deg, IAS 112kt, GS 116kt, Wind 270/01kt, Temp 14°C 112 2132
2026-05-05 14:37:05 Aircraft taxiing to apron 24 2132
2026-05-05 14:37:26 Aircraft at gate/stand, ground services are moving into position, disembarkation has begun. Remaining FOB 299kg FLYacars v1.3.5 0 2131
viserfly

ACARS DATA

DATE IAS GS ALTITUDE FUEL CONSUMED OAT FLIGHT STATUS
2026-05-05 14:21:08 103 112 3915 1469 15 TAKEOFF
2026-05-05 14:21:38 152 160 4892 1479 13 INITIAL CLIMB
2026-05-05 14:22:08 185 210 8775 1501 5 CLIMB
2026-05-05 14:22:38 254 297 9995 1534 3 ENROUTE
2026-05-05 14:23:08 256 299 9999 1566 3 ENROUTE
2026-05-05 14:23:38 256 299 9999 1599 3 ENROUTE
2026-05-05 14:24:08 257 299 9999 1632 1 ENROUTE
2026-05-05 14:24:38 256 299 10000 1665 3 ENROUTE
2026-05-05 14:25:08 256 299 9999 1697 2 ENROUTE
2026-05-05 14:25:38 256 299 9999 1730 2 ENROUTE
2026-05-05 14:26:08 256 299 10000 1763 3 ENROUTE
2026-05-05 14:26:38 256 299 10000 1796 2 ENROUTE
2026-05-05 14:27:08 256 300 10000 1828 2 ENROUTE
2026-05-05 14:27:38 257 300 9999 1861 2 ENROUTE
2026-05-05 14:28:08 257 300 10000 1894 0 ENROUTE
2026-05-05 14:28:38 257 298 10000 1927 -1 ENROUTE
2026-05-05 14:29:08 257 298 10000 1959 -1 ENROUTE
2026-05-05 14:29:38 258 298 10000 1992 -1 ENROUTE
2026-05-05 14:30:08 258 298 10000 2025 -1 ENROUTE
2026-05-05 14:30:38 258 298 10000 2058 -1 ENROUTE
2026-05-05 14:31:08 258 298 9999 2090 -1 ENROUTE
2026-05-05 14:31:38 257 298 10000 2123 -1 ENROUTE
2026-05-05 14:32:08 257 299 10000 2156 0 ENROUTE
2026-05-05 14:32:38 257 297 9964 2181 0 DESCENT
2026-05-05 14:33:08 138 157 9255 2185 1 DESCENT
2026-05-05 14:33:38 129 141 7061 2191 5 DESCENT
2026-05-05 14:34:08 119 127 5059 2198 9 DESCENT
2026-05-05 14:34:38 121 128 4179 2207 10 APPROACH
2026-05-05 14:35:08 131 138 3798 2217 11 APPROACH
2026-05-05 14:35:38 116 120 3194 2227 12 APPROACH
2026-05-05 14:36:08 127 131 2547 2236 14 ON FINAL
2026-05-05 14:36:38 116 120 2141 2242 14 ON FINAL
2026-05-05 14:37:08 24 26 2131 2247 14 TAXI TO APRON
  • Join our VA!

    It has been 11 years of great learning, friendships, and stories.

  • Sign up now!